PWSweather.com
Personal Weather Stations
Station Observations
KMNGREYC2
Grey Cloud Island, Grey Cloud Island, MN 55071

Grey Cloud IslandGrey Cloud Island, MN 55071

Lat: 44.799333, Lon: -92.987851

Elevation: 700

Station Type: Davis VP2

www.jagielski.com/weather/conditions.htm

High Low Average
Temperature 19.7°F-6.8°C -1.2°F-18.4°C 13.6°F-10.2°C
Dew Point 17.3°F-8.2°C -4.6°F-20.3°C 9.6°F-12.4°C
Winds 7.0 mph 11.3 kmh Calm Calm 2.0 mph W3.2 kmh W
Wind Gusts 13.0 mph20.9 kmh 2.0 mph3.2 kmh 7.0 mph11.3 kmh
Humidity 92% 73% 84%
Pressure 30.04 in1017.3 mb 29.84 in1010.5 mb -
Precipitation 0.00 in0.0 mm - -
Hour Temp Dew Point Humidity Winds Wind Gusts Pressure Precip Precip Rate Daily Precip Total
12:00 AM 18.5°F-7.5°C 16.6°F-8.6°C 92% Calm Calm 4.0 mph6.4 kmh 29.84 in1010.5 mb 0.00 in0.0 mm 0.00 in0.0 mm 0.00 in0.0 mm
12:15 AM 18.7°F-7.4°C 16.8°F-8.4°C 92% 1.0 mph NW1.6 kmh NW 6.0 mph9.7 kmh 29.84 in1010.5 mb 0.00 in0.0 mm 0.00 in0.0 mm 0.00 in0.0 mm
12:30 AM 18.8°F-7.3°C 16.9°F-8.4°C 92% 1.0 mph NW1.6 kmh NW 6.0 mph9.7 kmh 29.84 in1010.5 mb 0.00 in0.0 mm 0.00 in0.0 mm 0.00 in0.0 mm
12:45 AM 18.9°F-7.3°C 17.0°F-8.3°C 92% 4.0 mph NW6.4 kmh NW 5.0 mph8.0 kmh 29.84 in1010.5 mb 0.00 in0.0 mm 0.00 in0.0 mm 0.00 in0.0 mm
01:00 AM 18.9°F-7.3°C 17.0°F-8.3°C 92% 5.0 mph WNW8.0 kmh WNW 8.0 mph12.9 kmh 29.84 in1010.5 mb 0.00 in0.0 mm 0.00 in0.0 mm 0.00 in0.0 mm
01:15 AM 18.8°F-7.3°C 16.6°F-8.6°C 91% 4.0 mph WNW6.4 kmh WNW 6.0 mph9.7 kmh 29.84 in1010.5 mb 0.00 in0.0 mm 0.00 in0.0 mm 0.00 in0.0 mm
01:30 AM 18.8°F-7.3°C 16.6°F-8.6°C 91% 5.0 mph WNW8.0 kmh WNW 6.0 mph9.7 kmh 29.85 in1010.8 mb 0.00 in0.0 mm 0.00 in0.0 mm 0.00 in0.0 mm
01:45 AM 18.7°F-7.4°C 16.5°F-8.6°C 91% 3.0 mph WNW4.8 kmh WNW 6.0 mph9.7 kmh 29.85 in1010.8 mb 0.00 in0.0 mm 0.00 in0.0 mm 0.00 in0.0 mm
02:00 AM 18.6°F-7.4°C 16.4°F-8.7°C 91% 1.0 mph WNW1.6 kmh WNW 6.0 mph9.7 kmh 29.85 in1010.8 mb 0.00 in0.0 mm 0.00 in0.0 mm 0.00 in0.0 mm
02:15 AM 18.6°F-7.4°C 16.4°F-8.7°C 91% 1.0 mph WNW1.6 kmh WNW 5.0 mph8.0 kmh 29.85 in1010.8 mb 0.00 in0.0 mm 0.00 in0.0 mm 0.00 in0.0 mm
02:30 AM 18.6°F-7.4°C 16.4°F-8.7°C 91% 1.0 mph WNW1.6 kmh WNW 7.0 mph11.3 kmh 29.85 in1010.8 mb 0.00 in0.0 mm 0.00 in0.0 mm 0.00 in0.0 mm
02:45 AM 18.6°F-7.4°C 16.4°F-8.7°C 91% 1.0 mph WNW1.6 kmh WNW 5.0 mph8.0 kmh 29.85 in1010.8 mb 0.00 in0.0 mm 0.00 in0.0 mm 0.00 in0.0 mm
03:00 AM 18.7°F-7.4°C 16.5°F-8.6°C 91% Calm Calm 7.0 mph11.3 kmh 29.85 in1010.8 mb 0.00 in0.0 mm 0.00 in0.0 mm 0.00 in0.0 mm
03:15 AM 18.8°F-7.3°C 16.6°F-8.6°C 91% 2.0 mph WNW3.2 kmh WNW 4.0 mph6.4 kmh 29.85 in1010.8 mb 0.00 in0.0 mm 0.00 in0.0 mm 0.00 in0.0 mm
03:30 AM 18.8°F-7.3°C 16.6°F-8.6°C 91% Calm Calm 4.0 mph6.4 kmh 29.85 in1010.8 mb 0.00 in0.0 mm 0.00 in0.0 mm 0.00 in0.0 mm
03:45 AM 18.9°F-7.3°C 16.7°F-8.5°C 91% Calm Calm 4.0 mph6.4 kmh 29.85 in1010.8 mb 0.00 in0.0 mm 0.00 in0.0 mm 0.00 in0.0 mm
04:00 AM 19.1°F-7.2°C 16.9°F-8.4°C 91% Calm Calm 5.0 mph8.0 kmh 29.85 in1010.8 mb 0.00 in0.0 mm 0.00 in0.0 mm 0.00 in0.0 mm
04:15 AM 19.2°F-7.1°C 17.0°F-8.3°C 91% 2.0 mph WNW3.2 kmh WNW 5.0 mph8.0 kmh 29.84 in1010.5 mb 0.00 in0.0 mm 0.00 in0.0 mm 0.00 in0.0 mm
04:30 AM 19.3°F-7.1°C 17.1°F-8.3°C 91% 2.0 mph WNW3.2 kmh WNW 6.0 mph9.7 kmh 29.84 in1010.5 mb 0.00 in0.0 mm 0.00 in0.0 mm 0.00 in0.0 mm
04:45 AM 19.4°F-7.0°C 17.2°F-8.2°C 91% 1.0 mph W1.6 kmh W 8.0 mph12.9 kmh 29.84 in1010.5 mb 0.00 in0.0 mm 0.00 in0.0 mm 0.00 in0.0 mm
05:00 AM 19.5°F-6.9°C 17.3°F-8.2°C 91% 3.0 mph W4.8 kmh W 8.0 mph12.9 kmh 29.84 in1010.5 mb 0.00 in0.0 mm 0.00 in0.0 mm 0.00 in0.0 mm
05:15 AM 19.7°F-6.8°C 17.3°F-8.2°C 90% 6.0 mph WNW9.7 kmh WNW 7.0 mph11.3 kmh 29.84 in1010.5 mb 0.00 in0.0 mm 0.00 in0.0 mm 0.00 in0.0 mm
05:30 AM 19.7°F-6.8°C 17.3°F-8.2°C 90% 3.0 mph WNW4.8 kmh WNW 7.0 mph11.3 kmh 29.85 in1010.8 mb 0.00 in0.0 mm 0.00 in0.0 mm 0.00 in0.0 mm
05:45 AM 19.7°F-6.8°C 17.3°F-8.2°C 90% 1.0 mph NW1.6 kmh NW 8.0 mph12.9 kmh 29.84 in1010.5 mb 0.00 in0.0 mm 0.00 in0.0 mm 0.00 in0.0 mm
06:00 AM 19.7°F-6.8°C 17.0°F-8.3°C 89% 2.0 mph W3.2 kmh W 8.0 mph12.9 kmh 29.85 in1010.8 mb 0.00 in0.0 mm 0.00 in0.0 mm 0.00 in0.0 mm
06:15 AM 19.7°F-6.8°C 16.7°F-8.5°C 88% 2.0 mph WNW3.2 kmh WNW 7.0 mph11.3 kmh 29.85 in1010.8 mb 0.00 in0.0 mm 0.00 in0.0 mm 0.00 in0.0 mm
06:30 AM 19.6°F-6.9°C 16.6°F-8.6°C 88% 1.0 mph NW1.6 kmh NW 8.0 mph12.9 kmh 29.85 in1010.8 mb 0.00 in0.0 mm 0.00 in0.0 mm 0.00 in0.0 mm
06:45 AM 19.5°F-6.9°C 16.5°F-8.6°C 88% 4.0 mph WNW6.4 kmh WNW 6.0 mph9.7 kmh 29.86 in1011.2 mb 0.00 in0.0 mm 0.00 in0.0 mm 0.00 in0.0 mm
07:00 AM 19.4°F-7.0°C 16.2°F-8.8°C 87% 1.0 mph W1.6 kmh W 10.0 mph16.1 kmh 29.86 in1011.2 mb 0.00 in0.0 mm 0.00 in0.0 mm 0.00 in0.0 mm
07:15 AM 19.3°F-7.1°C 16.1°F-8.8°C 87% 2.0 mph WNW3.2 kmh WNW 8.0 mph12.9 kmh 29.86 in1011.2 mb 0.00 in0.0 mm 0.00 in0.0 mm 0.00 in0.0 mm
07:30 AM 19.2°F-7.1°C 16.0°F-8.9°C 87% Calm Calm 8.0 mph12.9 kmh 29.86 in1011.2 mb 0.00 in0.0 mm 0.00 in0.0 mm 0.00 in0.0 mm
07:45 AM 19.0°F-7.2°C 15.8°F-9.0°C 87% 3.0 mph WNW4.8 kmh WNW 9.0 mph14.5 kmh 29.86 in1011.2 mb 0.00 in0.0 mm 0.00 in0.0 mm 0.00 in0.0 mm
08:00 AM 18.5°F-7.5°C 15.0°F-9.4°C 86% 2.0 mph WNW3.2 kmh WNW 13.0 mph20.9 kmh 29.86 in1011.2 mb 0.00 in0.0 mm 0.00 in0.0 mm 0.00 in0.0 mm
08:15 AM 18.0°F-7.8°C 14.5°F-9.7°C 86% 3.0 mph WNW4.8 kmh WNW 12.0 mph19.3 kmh 29.87 in1011.5 mb 0.00 in0.0 mm 0.00 in0.0 mm 0.00 in0.0 mm
08:30 AM 17.9°F-7.8°C 14.4°F-9.8°C 86% 1.0 mph WNW1.6 kmh WNW 12.0 mph19.3 kmh 29.87 in1011.5 mb 0.00 in0.0 mm 0.00 in0.0 mm 0.00 in0.0 mm
08:45 AM 17.8°F-7.9°C 14.3°F-9.8°C 86% 5.0 mph WNW8.0 kmh WNW 8.0 mph12.9 kmh 29.88 in1011.9 mb 0.00 in0.0 mm 0.00 in0.0 mm 0.00 in0.0 mm
09:00 AM 17.7°F-7.9°C 14.2°F-9.9°C 86% 3.0 mph WNW4.8 kmh WNW 9.0 mph14.5 kmh 29.88 in1011.9 mb 0.00 in0.0 mm 0.00 in0.0 mm 0.00 in0.0 mm
09:15 AM 17.7°F-7.9°C 14.2°F-9.9°C 86% 2.0 mph SW3.2 kmh SW 7.0 mph11.3 kmh 29.88 in1011.9 mb 0.00 in0.0 mm 0.00 in0.0 mm 0.00 in0.0 mm
09:30 AM 17.5°F-8.1°C 13.8°F-10.1°C 85% 4.0 mph WNW6.4 kmh WNW 11.0 mph17.7 kmh 29.88 in1011.9 mb 0.00 in0.0 mm 0.00 in0.0 mm 0.00 in0.0 mm
09:45 AM 17.0°F-8.3°C 13.3°F-10.4°C 85% 3.0 mph NW4.8 kmh NW 10.0 mph16.1 kmh 29.89 in1012.2 mb 0.00 in0.0 mm 0.00 in0.0 mm 0.00 in0.0 mm
10:00 AM 16.7°F-8.5°C 13.0°F-10.6°C 85% 1.0 mph W1.6 kmh W 10.0 mph16.1 kmh 29.89 in1012.2 mb 0.00 in0.0 mm 0.00 in0.0 mm 0.00 in0.0 mm
10:15 AM 16.8°F-8.4°C 13.1°F-10.5°C 85% 4.0 mph WNW6.4 kmh WNW 10.0 mph16.1 kmh 29.89 in1012.2 mb 0.00 in0.0 mm 0.00 in0.0 mm 0.00 in0.0 mm
10:30 AM 16.7°F-8.5°C 13.0°F-10.6°C 85% 3.0 mph W4.8 kmh W 10.0 mph16.1 kmh 29.90 in1012.5 mb 0.00 in0.0 mm 0.00 in0.0 mm 0.00 in0.0 mm
10:45 AM 16.9°F-8.4°C 12.9°F-10.6°C 84% 3.0 mph WNW4.8 kmh WNW 11.0 mph17.7 kmh 29.90 in1012.5 mb 0.00 in0.0 mm 0.00 in0.0 mm 0.00 in0.0 mm
11:00 AM 17.1°F-8.3°C 13.1°F-10.5°C 84% Calm Calm 11.0 mph17.7 kmh 29.89 in1012.2 mb 0.00 in0.0 mm 0.00 in0.0 mm 0.00 in0.0 mm
11:15 AM 16.9°F-8.4°C 12.4°F-10.9°C 82% 2.0 mph NNE3.2 kmh NNE 10.0 mph16.1 kmh 29.89 in1012.2 mb 0.00 in0.0 mm 0.00 in0.0 mm 0.00 in0.0 mm
11:30 AM 16.8°F-8.4°C 12.3°F-10.9°C 82% 2.0 mph W3.2 kmh W 10.0 mph16.1 kmh 29.89 in1012.2 mb 0.00 in0.0 mm 0.00 in0.0 mm 0.00 in0.0 mm
11:45 AM 16.7°F-8.5°C 12.2°F-11.0°C 82% 3.0 mph WNW4.8 kmh WNW 10.0 mph16.1 kmh 29.89 in1012.2 mb 0.00 in0.0 mm 0.00 in0.0 mm 0.00 in0.0 mm
12:00 PM 16.9°F-8.4°C 12.1°F-11.1°C 81% 1.0 mph N1.6 kmh N 10.0 mph16.1 kmh 29.89 in1012.2 mb 0.00 in0.0 mm 0.00 in0.0 mm 0.00 in0.0 mm
12:15 PM 16.8°F-8.4°C 12.0°F-11.1°C 81% 1.0 mph W1.6 kmh W 8.0 mph12.9 kmh 29.88 in1011.9 mb 0.00 in0.0 mm 0.00 in0.0 mm 0.00 in0.0 mm
12:30 PM 17.0°F-8.3°C 11.9°F-11.2°C 80% 2.0 mph WNW3.2 kmh WNW 10.0 mph16.1 kmh 29.88 in1011.9 mb 0.00 in0.0 mm 0.00 in0.0 mm 0.00 in0.0 mm
12:45 PM 17.0°F-8.3°C 11.9°F-11.2°C 80% 7.0 mph WSW11.3 kmh WSW 9.0 mph14.5 kmh 29.89 in1012.2 mb 0.00 in0.0 mm 0.00 in0.0 mm 0.00 in0.0 mm
01:00 PM 16.8°F-8.4°C 11.4°F-11.4°C 79% 4.0 mph WSW6.4 kmh WSW 9.0 mph14.5 kmh 29.89 in1012.2 mb 0.00 in0.0 mm 0.00 in0.0 mm 0.00 in0.0 mm
01:15 PM 16.7°F-8.5°C 11.1°F-11.6°C 78% 5.0 mph WNW8.0 kmh WNW 10.0 mph16.1 kmh 29.89 in1012.2 mb 0.00 in0.0 mm 0.00 in0.0 mm 0.00 in0.0 mm
01:30 PM 16.8°F-8.4°C 10.6°F-11.9°C 76% 3.0 mph W4.8 kmh W 12.0 mph19.3 kmh 29.89 in1012.2 mb 0.00 in0.0 mm 0.00 in0.0 mm 0.00 in0.0 mm
01:45 PM 16.8°F-8.4°C 10.6°F-11.9°C 76% 2.0 mph W3.2 kmh W 7.0 mph11.3 kmh 29.89 in1012.2 mb 0.00 in0.0 mm 0.00 in0.0 mm 0.00 in0.0 mm
02:00 PM 16.8°F-8.4°C 10.0°F-12.2°C 74% 3.0 mph ENE4.8 kmh ENE 11.0 mph17.7 kmh 29.90 in1012.5 mb 0.00 in0.0 mm 0.00 in0.0 mm 0.00 in0.0 mm
02:15 PM 16.2°F-8.8°C 9.4°F-12.6°C 74% 4.0 mph WNW6.4 kmh WNW 13.0 mph20.9 kmh 29.90 in1012.5 mb 0.00 in0.0 mm 0.00 in0.0 mm 0.00 in0.0 mm
02:30 PM 15.9°F-8.9°C 8.8°F-12.9°C 73% 7.0 mph W11.3 kmh W 13.0 mph20.9 kmh 29.90 in1012.5 mb 0.00 in0.0 mm 0.00 in0.0 mm 0.00 in0.0 mm
02:45 PM 15.8°F-9.0°C 8.7°F-12.9°C 73% 4.0 mph WNW6.4 kmh WNW 13.0 mph20.9 kmh 29.91 in1012.9 mb 0.00 in0.0 mm 0.00 in0.0 mm 0.00 in0.0 mm
03:00 PM 15.2°F-9.3°C 8.1°F-13.3°C 73% Calm Calm 13.0 mph20.9 kmh 29.91 in1012.9 mb 0.00 in0.0 mm 0.00 in0.0 mm 0.00 in0.0 mm
03:15 PM 14.7°F-9.6°C 7.6°F-13.6°C 73% 2.0 mph W3.2 kmh W 12.0 mph19.3 kmh 29.92 in1013.2 mb 0.00 in0.0 mm 0.00 in0.0 mm 0.00 in0.0 mm
03:30 PM 13.9°F-10.1°C 6.9°F-13.9°C 73% 2.0 mph W3.2 kmh W 12.0 mph19.3 kmh 29.92 in1013.2 mb 0.00 in0.0 mm 0.00 in0.0 mm 0.00 in0.0 mm
03:45 PM 13.2°F-10.4°C 6.5°F-14.2°C 74% 6.0 mph W9.7 kmh W 10.0 mph16.1 kmh 29.92 in1013.2 mb 0.00 in0.0 mm 0.00 in0.0 mm 0.00 in0.0 mm
04:00 PM 12.7°F-10.7°C 6.3°F-14.3°C 75% 2.0 mph NW3.2 kmh NW 10.0 mph16.1 kmh 29.93 in1013.5 mb 0.00 in0.0 mm 0.00 in0.0 mm 0.00 in0.0 mm
04:15 PM 12.4°F-10.9°C 6.0°F-14.4°C 75% 3.0 mph NW4.8 kmh NW 9.0 mph14.5 kmh 29.93 in1013.5 mb 0.00 in0.0 mm 0.00 in0.0 mm 0.00 in0.0 mm
04:30 PM 12.0°F-11.1°C 5.9°F-14.5°C 76% 4.0 mph WNW6.4 kmh WNW 9.0 mph14.5 kmh 29.94 in1013.9 mb 0.00 in0.0 mm 0.00 in0.0 mm 0.00 in0.0 mm
04:45 PM 11.7°F-11.3°C 5.6°F-14.7°C 76% 3.0 mph WNW4.8 kmh WNW 6.0 mph9.7 kmh 29.94 in1013.9 mb 0.00 in0.0 mm 0.00 in0.0 mm 0.00 in0.0 mm
05:00 PM 11.2°F-11.6°C 5.1°F-14.9°C 76% 2.0 mph WNW3.2 kmh WNW 7.0 mph11.3 kmh 29.95 in1014.2 mb 0.00 in0.0 mm 0.00 in0.0 mm 0.00 in0.0 mm
05:15 PM 10.7°F-11.8°C 4.9°F-15.1°C 77% 3.0 mph WNW4.8 kmh WNW 4.0 mph6.4 kmh 29.95 in1014.2 mb 0.00 in0.0 mm 0.00 in0.0 mm 0.00 in0.0 mm
05:30 PM 10.1°F-12.2°C 4.3°F-15.4°C 77% Calm Calm 5.0 mph8.0 kmh 29.95 in1014.2 mb 0.00 in0.0 mm 0.00 in0.0 mm 0.00 in0.0 mm
05:45 PM 9.6°F-12.4°C 3.9°F-15.6°C 77% Calm Calm 6.0 mph9.7 kmh 29.97 in1014.9 mb 0.00 in0.0 mm 0.00 in0.0 mm 0.00 in0.0 mm
06:00 PM 9.1°F-12.7°C 3.7°F-15.7°C 78% Calm Calm 6.0 mph9.7 kmh 29.96 in1014.6 mb 0.00 in0.0 mm 0.00 in0.0 mm 0.00 in0.0 mm
06:15 PM 8.5°F-13.1°C 2.8°F-16.2°C 77% Calm Calm 5.0 mph8.0 kmh 29.97 in1014.9 mb 0.00 in0.0 mm 0.00 in0.0 mm 0.00 in0.0 mm
06:30 PM 7.7°F-13.5°C 2.0°F-16.7°C 77% Calm Calm 5.0 mph8.0 kmh 29.97 in1014.9 mb 0.00 in0.0 mm 0.00 in0.0 mm 0.00 in0.0 mm
06:45 PM 6.7°F-14.1°C 1.0°F-17.2°C 77% Calm Calm 2.0 mph3.2 kmh 29.97 in1014.9 mb 0.00 in0.0 mm 0.00 in0.0 mm 0.00 in0.0 mm
07:00 PM 5.7°F-14.6°C 0.3°F-17.6°C 78% Calm Calm 3.0 mph4.8 kmh 29.97 in1014.9 mb 0.00 in0.0 mm 0.00 in0.0 mm 0.00 in0.0 mm
07:15 PM 4.8°F-15.1°C -0.5°F-18.1°C 78% 3.0 mph WNW4.8 kmh WNW 5.0 mph8.0 kmh 29.97 in1014.9 mb 0.00 in0.0 mm 0.00 in0.0 mm 0.00 in0.0 mm
07:30 PM 4.1°F-15.5°C -0.7°F-18.2°C 80% Calm Calm 5.0 mph8.0 kmh 29.98 in1015.2 mb 0.00 in0.0 mm 0.00 in0.0 mm 0.00 in0.0 mm
07:45 PM 3.8°F-15.7°C -0.5°F-18.1°C 82% 3.0 mph WNW4.8 kmh WNW 4.0 mph6.4 kmh 29.98 in1015.2 mb 0.00 in0.0 mm 0.00 in0.0 mm 0.00 in0.0 mm
08:00 PM 3.8°F-15.7°C -0.2°F-17.9°C 83% 1.0 mph WNW1.6 kmh WNW 5.0 mph8.0 kmh 29.99 in1015.6 mb 0.00 in0.0 mm 0.00 in0.0 mm 0.00 in0.0 mm
08:15 PM 4.0°F-15.6°C 0.0°F-17.8°C 83% Calm Calm 3.0 mph4.8 kmh 29.99 in1015.6 mb 0.00 in0.0 mm 0.00 in0.0 mm 0.00 in0.0 mm
08:30 PM 3.8°F-15.7°C -0.5°F-18.1°C 82% 3.0 mph WNW4.8 kmh WNW 3.0 mph4.8 kmh 29.99 in1015.6 mb 0.00 in0.0 mm 0.00 in0.0 mm 0.00 in0.0 mm
08:45 PM 3.3°F-15.9°C -1.0°F-18.3°C 82% Calm Calm 2.0 mph3.2 kmh 30.00 in1015.9 mb 0.00 in0.0 mm 0.00 in0.0 mm 0.00 in0.0 mm
09:00 PM 2.7°F-16.3°C -1.5°F-18.6°C 82% 1.0 mph WNW1.6 kmh WNW 3.0 mph4.8 kmh 30.00 in1015.9 mb 0.00 in0.0 mm 0.00 in0.0 mm 0.00 in0.0 mm
09:15 PM 2.3°F-16.5°C -1.7°F-18.7°C 83% 1.0 mph WNW1.6 kmh WNW 3.0 mph4.8 kmh 30.00 in1015.9 mb 0.00 in0.0 mm 0.00 in0.0 mm 0.00 in0.0 mm
09:30 PM 2.0°F-16.7°C -2.0°F-18.9°C 83% Calm Calm 5.0 mph8.0 kmh 30.01 in1016.3 mb 0.00 in0.0 mm 0.00 in0.0 mm 0.00 in0.0 mm
09:45 PM 1.6°F-16.9°C -2.4°F-19.1°C 83% Calm Calm 2.0 mph3.2 kmh 30.01 in1016.3 mb 0.00 in0.0 mm 0.00 in0.0 mm 0.00 in0.0 mm
10:00 PM 1.1°F-17.2°C -2.9°F-19.4°C 83% Calm Calm 2.0 mph3.2 kmh 30.02 in1016.6 mb 0.00 in0.0 mm 0.00 in0.0 mm 0.00 in0.0 mm
10:15 PM 0.6°F-17.4°C -3.1°F-19.5°C 84% Calm Calm 2.0 mph3.2 kmh 30.03 in1016.9 mb 0.00 in0.0 mm 0.00 in0.0 mm 0.00 in0.0 mm
10:30 PM 0.2°F-17.7°C -3.5°F-19.7°C 84% 1.0 mph WNW1.6 kmh WNW 2.0 mph3.2 kmh 30.03 in1016.9 mb 0.00 in0.0 mm 0.00 in0.0 mm 0.00 in0.0 mm
10:45 PM -0.4°F-18.0°C -4.1°F-20.1°C 84% 1.0 mph WNW1.6 kmh WNW 3.0 mph4.8 kmh 30.03 in1016.9 mb 0.00 in0.0 mm 0.00 in0.0 mm 0.00 in0.0 mm
11:00 PM -0.7°F-18.2°C -4.4°F-20.2°C 84% 1.0 mph WNW1.6 kmh WNW 3.0 mph4.8 kmh 30.03 in1016.9 mb 0.00 in0.0 mm 0.00 in0.0 mm 0.00 in0.0 mm
11:15 PM -0.7°F-18.2°C -4.1°F-20.1°C 85% Calm Calm 2.0 mph3.2 kmh 30.03 in1016.9 mb 0.00 in0.0 mm 0.00 in0.0 mm 0.00 in0.0 mm
11:30 PM -0.9°F-18.3°C -4.3°F-20.2°C 85% Calm Calm 2.0 mph3.2 kmh 30.04 in1017.3 mb 0.00 in0.0 mm 0.00 in0.0 mm 0.00 in0.0 mm
11:45 PM -1.2°F-18.4°C -4.6°F-20.3°C 85% 2.0 mph WNW3.2 kmh WNW 2.0 mph3.2 kmh 30.04 in1017.3 mb 0.00 in0.0 mm 0.00 in0.0 mm 0.00 in0.0 mm